createdAt,value
2019-03-23T00:02:44.744Z,71.2
2019-03-23T00:07:45.409Z,71.1
2019-03-23T00:12:28.042Z,71.1
2019-03-23T00:17:28.381Z,70.9
2019-03-23T00:22:29.493Z,70.8
2019-03-23T00:27:28.894Z,70.9
2019-03-23T00:32:28.281Z,70.9
2019-03-23T00:37:28.688Z,70.7
2019-03-23T00:42:27.425Z,70.7
2019-03-23T00:47:29.184Z,70.4
2019-03-23T00:52:27.417Z,70.2
2019-03-23T00:57:28.565Z,70.2
2019-03-23T01:02:28.472Z,70.2
2019-03-23T01:07:28.397Z,69.8
2019-03-23T01:12:29.497Z,69.8
2019-03-23T01:17:28.188Z,69.8
2019-03-23T01:22:28.234Z,69.7
2019-03-23T01:27:28.089Z,69.8
2019-03-23T01:32:28.501Z,69.6
2019-03-23T01:37:27.735Z,69.6
2019-03-23T01:42:28.601Z,69.6
2019-03-23T01:47:28.601Z,69.5
2019-03-23T01:52:28.338Z,69.6
2019-03-23T01:57:28.657Z,69.6
2019-03-23T02:02:28.241Z,69.6
2019-03-23T02:07:28.188Z,69.5
2019-03-23T02:12:28.124Z,69.5
2019-03-23T02:17:28.442Z,69.5
2019-03-23T02:22:27.973Z,69.4
2019-03-23T02:27:27.800Z,69.4
2019-03-23T02:32:27.755Z,69.5
2019-03-23T02:37:29.050Z,69.5
2019-03-23T02:42:27.963Z,69.3
2019-03-23T02:47:28.412Z,69.3
2019-03-23T02:52:28.060Z,69.4
2019-03-23T02:57:28.405Z,69.4
2019-03-23T03:02:28.116Z,69.2
2019-03-23T03:07:43.441Z,69.1
2019-03-23T03:12:28.836Z,69.1
2019-03-23T03:17:28.554Z,69.1
2019-03-23T03:22:28.297Z,68.9
2019-03-23T03:27:28.476Z,68.8
2019-03-23T03:32:28.613Z,68.9
2019-03-23T03:37:28.490Z,68.8
2019-03-23T03:42:28.214Z,68.8
2019-03-23T03:47:28.284Z,68.8
2019-03-23T03:52:28.017Z,68.7
2019-03-23T03:57:28.393Z,68.7
2019-03-23T04:02:27.661Z,68.7
2019-03-23T04:07:28.364Z,68.8
2019-03-23T04:12:28.544Z,68.7
2019-03-23T04:17:28.352Z,68.6
2019-03-23T04:22:27.438Z,68.6
2019-03-23T04:27:28.729Z,68.4
2019-03-23T04:32:28.437Z,68.1
2019-03-23T04:37:28.252Z,68.1
2019-03-23T04:42:27.579Z,68.2
2019-03-23T04:47:29.485Z,68.2
2019-03-23T04:52:28.462Z,68.2
2019-03-23T04:57:30.331Z,68.1
2019-03-23T05:02:28.802Z,68.3
2019-03-23T05:07:28.630Z,68.3
2019-03-23T05:12:28.385Z,68.4
2019-03-23T05:17:29.278Z,68.2
2019-03-23T05:22:29.092Z,68.2
2019-03-23T05:27:29.328Z,68.2
2019-03-23T05:32:28.833Z,68.4
2019-03-23T05:37:29.677Z,68.3
2019-03-23T05:42:29.003Z,68.3
2019-03-23T05:47:28.768Z,68.4
2019-03-23T05:52:28.532Z,68.1
2019-03-23T05:57:28.544Z,68.2
2019-03-23T06:02:28.967Z,68.1
2019-03-23T06:07:28.767Z,67.9
2019-03-23T06:12:29.109Z,67.7
2019-03-23T06:17:29.984Z,67.3
2019-03-23T06:22:28.543Z,67.3
2019-03-23T06:27:28.976Z,67.4
2019-03-23T06:32:28.904Z,67.1
2019-03-23T06:37:28.440Z,67.2
2019-03-23T06:42:28.488Z,67.2
2019-03-23T06:47:29.264Z,67.2
2019-03-23T06:52:28.763Z,67.2
2019-03-23T06:57:29.681Z,67.4
2019-03-23T07:02:30.042Z,67.4
2019-03-23T07:07:29.186Z,67.3
2019-03-23T07:12:29.276Z,67.4
2019-03-23T07:17:29.182Z,67.4
2019-03-23T07:22:29.133Z,67.4
2019-03-23T07:27:28.904Z,67.6
2019-03-23T07:32:28.346Z,67.6
2019-03-23T07:37:28.291Z,67.8
2019-03-23T07:42:28.395Z,67.9
2019-03-23T07:47:29.450Z,67.8
2019-03-23T07:52:28.864Z,68.0
2019-03-23T07:57:28.820Z,68.3
2019-03-23T08:02:29.118Z,68.5
2019-03-23T08:07:29.155Z,68.5
2019-03-23T08:12:29.113Z,68.8
2019-03-23T08:17:28.880Z,69.0
2019-03-23T08:22:28.283Z,69.2
2019-03-23T08:27:29.469Z,69.5
2019-03-23T08:32:29.185Z,70.1
2019-03-23T08:37:29.485Z,70.0
2019-03-23T08:42:28.183Z,70.2
2019-03-23T08:47:29.169Z,70.5
2019-03-23T08:52:29.422Z,70.8
2019-03-23T08:57:28.684Z,71.1
2019-03-23T09:02:30.449Z,71.2
2019-03-23T09:07:28.979Z,71.4
2019-03-23T09:12:28.881Z,71.7
2019-03-23T09:17:28.746Z,72.0
2019-03-23T09:22:28.281Z,72.4
2019-03-23T09:27:29.209Z,72.6
2019-03-23T09:32:29.627Z,73.1
2019-03-23T09:37:28.197Z,73.1
2019-03-23T09:42:29.114Z,73.5
2019-03-23T09:47:29.429Z,73.8
2019-03-23T09:52:29.211Z,74.4
2019-03-23T09:57:28.599Z,74.3
2019-03-23T10:02:28.822Z,74.8
2019-03-23T10:07:29.713Z,74.9
2019-03-23T10:12:28.423Z,75.3
2019-03-23T10:17:29.841Z,75.4
2019-03-23T10:22:28.828Z,76.0
2019-03-23T10:27:28.922Z,76.0
2019-03-23T10:32:28.673Z,76.0
2019-03-23T10:37:28.552Z,76.3
2019-03-23T10:42:28.354Z,76.1
2019-03-23T10:47:28.852Z,76.7
2019-03-23T10:52:28.559Z,76.6
2019-03-23T10:57:29.720Z,77.1
2019-03-23T11:02:28.649Z,77.2
2019-03-23T11:07:28.846Z,77.5
2019-03-23T11:12:29.132Z,77.4
2019-03-23T11:17:28.959Z,76.7
2019-03-23T11:22:28.474Z,78.0
2019-03-23T11:27:29.073Z,78.2
2019-03-23T11:32:28.259Z,78.2
2019-03-23T11:37:28.738Z,77.0
2019-03-23T11:42:28.974Z,78.1
2019-03-23T11:47:28.826Z,77.9
2019-03-23T11:52:28.078Z,77.8
2019-03-23T11:57:28.104Z,77.9
2019-03-23T12:02:28.342Z,78.4
2019-03-23T12:07:29.031Z,78.1
2019-03-23T12:12:29.150Z,78.1
2019-03-23T12:17:30.698Z,78.1
2019-03-23T12:22:29.445Z,78.0
2019-03-23T12:27:27.649Z,78.3
2019-03-23T12:32:28.373Z,78.2
2019-03-23T12:37:29.292Z,78.4
2019-03-23T12:42:28.505Z,78.5
2019-03-23T12:47:30.698Z,78.2
2019-03-23T12:52:28.956Z,77.8
2019-03-23T12:57:29.072Z,78.5
2019-03-23T13:02:28.503Z,78.6
2019-03-23T13:07:29.159Z,78.6
2019-03-23T13:12:28.293Z,78.7
2019-03-23T13:17:29.804Z,78.7
2019-03-23T13:22:29.724Z,79.3
2019-03-23T13:27:28.559Z,79.5
2019-03-23T13:32:29.506Z,80.0
2019-03-23T13:37:28.277Z,79.8
2019-03-23T13:42:29.098Z,77.9
2019-03-23T13:47:29.979Z,79.5
2019-03-23T13:52:28.058Z,79.5
2019-03-23T13:57:28.983Z,79.3
2019-03-23T14:02:28.148Z,78.5
2019-03-23T14:07:29.152Z,78.6
2019-03-23T14:12:29.411Z,78.9
2019-03-23T14:17:28.664Z,75.3
2019-03-23T14:22:27.908Z,75.3
2019-03-23T14:27:29.372Z,77.8
2019-03-23T14:32:29.271Z,75.7
2019-03-23T14:37:29.382Z,71.4
2019-03-23T14:42:28.586Z,71.0
2019-03-23T14:47:29.453Z,67.6
2019-03-23T14:52:28.613Z,64.8
2019-03-23T14:57:28.904Z,63.5
2019-03-23T15:02:29.360Z,59.5
2019-03-23T15:07:29.182Z,59.5
2019-03-23T15:12:28.872Z,58.8
2019-03-23T15:17:29.017Z,58.8
2019-03-23T15:22:29.054Z,57.6
2019-03-23T15:27:27.892Z,57.8
2019-03-23T15:32:28.991Z,54.9
2019-03-23T15:37:28.902Z,56.2
2019-03-23T15:42:28.493Z,56.7
2019-03-23T15:47:29.155Z,57.4
2019-03-23T15:52:28.710Z,56.8
2019-03-23T15:57:28.577Z,56.6
2019-03-23T16:02:28.783Z,56.6
2019-03-23T16:07:30.089Z,56.2
2019-03-23T16:12:37.534Z,57.1
2019-03-23T16:17:30.506Z,58.1
2019-03-23T16:22:28.113Z,58.1
2019-03-23T16:27:28.357Z,56.7
2019-03-23T16:32:28.476Z,58.3
2019-03-23T16:37:28.351Z,58.3
2019-03-23T16:42:28.784Z,58.6
2019-03-23T16:47:30.439Z,58.6
2019-03-23T16:52:28.807Z,60.8
2019-03-23T16:57:28.759Z,60.8
2019-03-23T17:02:28.606Z,60.7
2019-03-23T17:07:28.704Z,61.9
2019-03-23T17:12:29.726Z,62.5
2019-03-23T17:17:29.432Z,63.8
2019-03-23T17:22:30.064Z,65.2
2019-03-23T17:27:28.284Z,65.3
2019-03-23T17:32:28.406Z,67.0
2019-03-23T17:37:29.366Z,68.9
2019-03-23T17:42:29.593Z,71.0
2019-03-23T17:47:27.888Z,72.3
2019-03-23T17:52:28.782Z,72.2
2019-03-23T17:57:28.442Z,72.4
2019-03-23T18:02:29.402Z,72.7
2019-03-23T18:07:28.599Z,72.7
2019-03-23T18:12:28.622Z,72.8
2019-03-23T18:17:29.005Z,72.6
2019-03-23T18:22:28.338Z,72.7
2019-03-23T18:27:28.469Z,72.6
2019-03-23T18:32:27.847Z,72.7
2019-03-23T18:37:28.759Z,72.6
2019-03-23T18:42:28.592Z,72.2
2019-03-23T18:47:28.136Z,72.0
2019-03-23T18:52:29.704Z,71.9
2019-03-23T18:57:28.547Z,71.9
2019-03-23T19:02:28.376Z,72.0
2019-03-23T19:07:28.581Z,71.8
2019-03-23T19:12:27.662Z,71.9
2019-03-23T19:17:29.043Z,71.7
2019-03-23T19:22:27.481Z,71.7
2019-03-23T19:27:27.978Z,71.8
2019-03-23T19:32:28.060Z,71.9
2019-03-23T19:37:27.738Z,71.8
2019-03-23T19:42:27.999Z,71.6
2019-03-23T19:47:29.262Z,71.2
2019-03-23T19:52:28.186Z,71.3
2019-03-23T19:57:28.668Z,71.4
2019-03-23T20:02:28.315Z,71.5
2019-03-23T20:07:33.699Z,71.6
2019-03-23T20:12:28.698Z,71.4
2019-03-23T20:17:28.820Z,71.4
2019-03-23T20:22:27.664Z,71.3
2019-03-23T20:27:27.739Z,71.2
2019-03-23T20:32:29.684Z,71.2
2019-03-23T20:37:28.861Z,71.2
2019-03-23T20:42:27.671Z,71.0
2019-03-23T20:47:28.277Z,71.0
2019-03-23T20:52:27.328Z,70.9
2019-03-23T20:57:37.861Z,70.9
2019-03-23T21:02:28.849Z,70.7
2019-03-23T21:07:28.200Z,70.7
2019-03-23T21:12:28.442Z,70.7
2019-03-23T21:17:28.495Z,70.7
2019-03-23T21:22:28.387Z,70.6
2019-03-23T21:27:28.090Z,70.4
2019-03-23T21:32:29.338Z,70.4
2019-03-23T21:37:28.502Z,70.3
2019-03-23T21:42:27.543Z,70.2
2019-03-23T21:47:29.538Z,70.1
2019-03-23T21:52:28.282Z,70.0
2019-03-23T21:57:28.913Z,69.9
2019-03-23T22:02:28.463Z,69.8
2019-03-23T22:07:28.561Z,69.8
2019-03-23T22:12:28.194Z,69.7
2019-03-23T22:17:28.192Z,69.8
2019-03-23T22:22:28.317Z,69.8
2019-03-23T22:27:28.587Z,69.8
2019-03-23T22:32:28.489Z,69.5
2019-03-23T22:37:28.649Z,69.6
2019-03-23T22:42:28.603Z,69.5
2019-03-23T22:47:28.365Z,69.5
2019-03-23T22:52:28.082Z,69.5
2019-03-23T22:57:28.058Z,69.5
2019-03-23T23:02:28.382Z,69.4
2019-03-23T23:07:28.788Z,69.1
2019-03-23T23:12:28.631Z,69.1
2019-03-23T23:22:46.700Z,68.7
2019-03-23T23:27:45.593Z,69.1
2019-03-23T23:32:46.597Z,69.1
2019-03-23T23:37:45.201Z,69.0
2019-03-23T23:42:46.222Z,69.0
2019-03-23T23:47:45.352Z,69.0
2019-03-23T23:52:45.565Z,68.9
2019-03-23T23:57:45.591Z,68.8
